createdAt,value
2022-07-29T00:01:48.909Z,85.82
2022-07-29T00:04:15.739Z,86.01
2022-07-29T00:06:42.553Z,85.72
2022-07-29T00:09:09.159Z,85.50
2022-07-29T00:11:35.653Z,86.73
2022-07-29T00:14:02.203Z,87.63
2022-07-29T00:16:28.824Z,87.14
2022-07-29T00:18:55.345Z,87.76
2022-07-29T00:21:21.838Z,87.17
2022-07-29T00:23:48.410Z,86.74
2022-07-29T00:26:14.876Z,87.89
2022-07-29T00:28:41.430Z,87.78
2022-07-29T00:31:08.968Z,87.68
2022-07-29T00:33:35.535Z,87.90
2022-07-29T00:36:01.995Z,87.97
2022-07-29T00:38:28.517Z,88.66
2022-07-29T00:40:55.007Z,88.90
2022-07-29T00:43:21.656Z,88.45
2022-07-29T00:45:48.152Z,88.87
2022-07-29T00:48:14.666Z,88.48
2022-07-29T00:50:41.265Z,88.44
2022-07-29T00:53:09.211Z,88.43
2022-07-29T00:55:36.333Z,88.94
2022-07-29T00:58:03.035Z,88.94
2022-07-29T01:00:31.667Z,89.29
2022-07-29T01:02:58.843Z,89.64
2022-07-29T01:05:51.559Z,89.84
2022-07-29T01:08:16.954Z,89.36
2022-07-29T01:10:44.830Z,90.53
2022-07-29T01:13:12.469Z,89.10
2022-07-29T01:15:49.280Z,88.71
2022-07-29T01:18:29.356Z,88.76
2022-07-29T01:21:27.642Z,89.21
2022-07-29T01:24:20.594Z,89.06
2022-07-29T01:26:53.378Z,89.18
2022-07-29T01:29:36.255Z,88.12
2022-07-29T01:32:27.807Z,88.26
2022-07-29T01:35:07.094Z,88.00
2022-07-29T01:37:40.409Z,87.56
2022-07-29T01:40:15.655Z,87.11
2022-07-29T01:42:49.600Z,87.05
2022-07-29T01:45:34.453Z,87.38
2022-07-29T01:48:11.238Z,87.33
2022-07-29T01:50:46.551Z,87.16
2022-07-29T01:53:15.793Z,86.60
2022-07-29T01:55:45.633Z,86.49
2022-07-29T01:58:15.149Z,86.07
2022-07-29T02:00:43.631Z,85.72
2022-07-29T02:03:13.081Z,85.48
2022-07-29T02:05:43.259Z,84.76
2022-07-29T02:08:11.565Z,84.80
2022-07-29T02:10:40.977Z,84.19
2022-07-29T02:13:08.614Z,84.18
2022-07-29T02:15:36.465Z,84.23
2022-07-29T02:18:07.106Z,84.22
2022-07-29T02:20:34.953Z,84.60
2022-07-29T02:23:03.126Z,84.30
2022-07-29T02:25:36.922Z,84.89
2022-07-29T02:28:06.158Z,84.49
2022-07-29T02:30:33.880Z,84.50
2022-07-29T02:33:01.340Z,83.90
2022-07-29T02:35:28.210Z,83.95
2022-07-29T02:38:21.691Z,83.42
2022-07-29T02:40:50.717Z,83.61
2022-07-29T02:43:19.526Z,83.41
2022-07-29T02:45:48.306Z,83.79
2022-07-29T02:48:23.437Z,84.06
2022-07-29T02:50:51.261Z,85.14
2022-07-29T02:53:26.098Z,84.62
2022-07-29T02:56:02.836Z,85.20
2022-07-29T02:58:33.343Z,85.92
2022-07-29T03:01:04.006Z,86.86
2022-07-29T03:03:34.945Z,87.47
2022-07-29T03:06:03.850Z,87.61
2022-07-29T03:08:32.970Z,86.85
2022-07-29T03:11:01.000Z,86.08
2022-07-29T03:13:29.404Z,85.87
2022-07-29T03:15:56.441Z,85.73
2022-07-29T03:18:23.279Z,85.35
2022-07-29T03:20:49.891Z,86.88
2022-07-29T03:23:21.797Z,87.75
2022-07-29T03:25:48.638Z,87.69
2022-07-29T03:28:15.234Z,88.79
2022-07-29T03:30:44.611Z,89.69
2022-07-29T03:33:13.268Z,89.46
2022-07-29T03:35:40.598Z,89.04
2022-07-29T03:38:07.137Z,89.85
2022-07-29T03:40:59.344Z,91.02
2022-07-29T03:43:29.970Z,91.22
2022-07-29T03:45:58.591Z,91.53
2022-07-29T03:48:27.446Z,89.94
2022-07-29T03:50:54.027Z,90.94
2022-07-29T03:53:20.970Z,91.20
2022-07-29T03:55:51.994Z,91.40
2022-07-29T03:58:20.318Z,89.63
2022-07-29T04:00:48.017Z,88.52
2022-07-29T04:03:16.006Z,87.71
2022-07-29T04:05:42.647Z,86.67
2022-07-29T04:08:09.127Z,86.41
2022-07-29T04:10:35.931Z,88.85
2022-07-29T04:13:02.721Z,88.25
2022-07-29T04:15:31.362Z,87.82
2022-07-29T04:17:58.779Z,87.04
2022-07-29T04:20:25.369Z,86.71
2022-07-29T04:22:51.935Z,86.37
2022-07-29T04:25:18.491Z,85.31
2022-07-29T04:28:03.233Z,85.37
2022-07-29T04:30:31.248Z,85.08
2022-07-29T04:32:57.807Z,85.34
2022-07-29T04:35:24.413Z,85.43
2022-07-29T04:37:50.985Z,85.77
2022-07-29T04:40:17.544Z,85.46
2022-07-29T04:42:46.569Z,85.31
2022-07-29T04:45:15.045Z,85.12
2022-07-29T04:47:42.877Z,85.37
2022-07-29T04:50:10.493Z,85.58
2022-07-29T04:52:37.646Z,85.74
2022-07-29T04:55:05.492Z,85.63
2022-07-29T04:57:32.022Z,85.41
2022-07-29T04:59:58.538Z,85.15
2022-07-29T05:02:25.119Z,85.17
2022-07-29T05:04:51.643Z,85.39
2022-07-29T05:07:18.247Z,85.07
2022-07-29T05:09:44.984Z,84.61
2022-07-29T05:12:11.805Z,84.69
2022-07-29T05:14:38.365Z,84.16
2022-07-29T05:17:04.926Z,83.40
2022-07-29T05:19:31.530Z,83.99
2022-07-29T05:21:58.018Z,83.57
2022-07-29T05:24:24.497Z,83.45
2022-07-29T05:26:51.009Z,82.18
2022-07-29T05:29:42.776Z,81.53
2022-07-29T05:32:04.765Z,81.46
2022-07-29T05:34:31.834Z,81.64
2022-07-29T05:36:58.724Z,81.25
2022-07-29T05:39:46.606Z,81.16
2022-07-29T05:42:12.651Z,81.71
2022-07-29T05:44:40.520Z,81.76
2022-07-29T05:47:07.471Z,82.06
2022-07-29T05:49:34.174Z,81.60
2022-07-29T05:52:00.700Z,81.82
2022-07-29T05:54:27.254Z,81.66
2022-07-29T05:56:53.725Z,81.41
2022-07-29T05:59:20.226Z,81.10
2022-07-29T06:01:46.777Z,80.63
2022-07-29T06:04:13.772Z,80.45
2022-07-29T06:06:40.485Z,79.96
2022-07-29T06:09:12.713Z,79.87
2022-07-29T06:11:40.581Z,80.22
2022-07-29T06:14:07.093Z,80.28
2022-07-29T06:16:33.639Z,79.74
2022-07-29T06:19:00.151Z,79.10
2022-07-29T06:21:26.757Z,79.11
2022-07-29T06:23:53.250Z,78.82
2022-07-29T06:26:30.697Z,78.59
2022-07-29T06:28:58.521Z,77.95
2022-07-29T06:31:25.090Z,77.89
2022-07-29T06:33:51.815Z,77.48
2022-07-29T06:36:21.397Z,76.30
2022-07-29T06:38:51.581Z,75.76
2022-07-29T06:41:18.916Z,75.74
2022-07-29T06:43:51.973Z,75.49
2022-07-29T06:46:22.455Z,75.08
2022-07-29T06:48:49.652Z,74.03
2022-07-29T06:51:17.355Z,72.27
2022-07-29T06:53:59.475Z,72.24
2022-07-29T06:56:39.572Z,71.39
2022-07-29T06:59:08.578Z,70.26
2022-07-29T07:01:37.108Z,69.75
2022-07-29T07:04:03.752Z,69.49
2022-07-29T07:06:30.295Z,69.04
2022-07-29T07:08:57.358Z,67.87
2022-07-29T07:11:23.960Z,66.28
2022-07-29T07:13:50.561Z,65.60
2022-07-29T07:16:17.266Z,64.51
2022-07-29T07:18:45.962Z,64.58
2022-07-29T07:21:13.102Z,65.42
2022-07-29T07:23:46.223Z,64.67
2022-07-29T07:26:12.761Z,64.57
2022-07-29T07:28:39.238Z,63.74
2022-07-29T07:31:06.139Z,63.57
2022-07-29T07:33:32.624Z,63.04
2022-07-29T07:35:59.422Z,62.58
2022-07-29T07:38:25.942Z,62.77
2022-07-29T07:40:52.494Z,57.25
2022-07-29T07:43:18.964Z,56.97
2022-07-29T07:45:45.530Z,56.70
2022-07-29T07:48:12.127Z,57.49
2022-07-29T07:50:38.662Z,56.22
2022-07-29T07:53:05.464Z,56.00
2022-07-29T07:55:53.239Z,55.93
2022-07-29T07:58:18.440Z,54.38
2022-07-29T08:00:44.942Z,54.33
2022-07-29T08:03:16.953Z,54.36
2022-07-29T08:05:44.904Z,53.43
2022-07-29T08:08:11.370Z,51.34
2022-07-29T08:10:53.337Z,53.63
2022-07-29T08:13:22.057Z,53.38
2022-07-29T08:15:57.697Z,51.00
2022-07-29T08:18:31.633Z,51.93
2022-07-29T08:20:59.053Z,51.15
2022-07-29T08:23:31.499Z,51.87
2022-07-29T08:26:14.109Z,51.47
2022-07-29T08:28:45.629Z,51.52
2022-07-29T08:31:13.709Z,51.15
2022-07-29T08:33:40.266Z,50.72
2022-07-29T08:36:07.207Z,50.98
2022-07-29T08:38:34.122Z,51.29
2022-07-29T08:41:04.148Z,51.90
2022-07-29T08:43:30.632Z,50.85
2022-07-29T08:45:57.215Z,51.07
2022-07-29T08:48:24.700Z,50.41
2022-07-29T08:50:56.440Z,51.91
2022-07-29T08:53:27.341Z,54.09
2022-07-29T08:55:54.422Z,51.91
2022-07-29T08:58:23.188Z,50.71
2022-07-29T09:00:56.377Z,51.22
2022-07-29T09:03:30.584Z,49.79
2022-07-29T09:05:57.487Z,50.19
2022-07-29T09:08:24.537Z,49.77
2022-07-29T09:10:52.126Z,49.42
2022-07-29T09:13:19.120Z,48.42
2022-07-29T09:15:46.270Z,48.26
2022-07-29T09:18:20.654Z,48.06
2022-07-29T09:21:16.140Z,47.92
2022-07-29T09:24:01.069Z,47.28
2022-07-29T09:26:32.336Z,46.46
2022-07-29T09:29:00.011Z,45.51
2022-07-29T09:31:50.853Z,44.16
2022-07-29T09:34:22.513Z,43.86
2022-07-29T09:36:51.335Z,44.07
2022-07-29T09:39:29.902Z,44.67
2022-07-29T09:41:58.839Z,43.49
2022-07-29T09:44:26.035Z,44.53
2022-07-29T09:46:59.247Z,44.08
2022-07-29T09:49:26.616Z,43.53
2022-07-29T09:52:10.437Z,44.06
2022-07-29T09:54:37.758Z,43.09
2022-07-29T09:57:07.393Z,43.54
2022-07-29T09:59:34.524Z,42.93
2022-07-29T10:02:01.458Z,41.99
2022-07-29T10:04:43.592Z,42.27
2022-07-29T10:07:10.779Z,42.42
2022-07-29T10:09:37.485Z,42.09
2022-07-29T10:12:08.199Z,40.36
2022-07-29T10:14:35.516Z,39.10
2022-07-29T10:17:03.702Z,39.18
2022-07-29T10:19:32.027Z,38.16
2022-07-29T10:22:00.351Z,39.34
2022-07-29T10:24:28.221Z,38.93
2022-07-29T10:26:59.145Z,38.09
2022-07-29T10:29:26.125Z,38.30
2022-07-29T10:32:51.157Z,38.46
2022-07-29T10:35:50.488Z,39.99
2022-07-29T10:38:30.347Z,39.42
2022-07-29T10:41:28.991Z,40.38
2022-07-29T10:44:17.074Z,40.18
2022-07-29T10:46:44.360Z,39.21
2022-07-29T10:49:18.303Z,37.91
2022-07-29T10:51:51.046Z,39.34
2022-07-29T10:54:37.018Z,39.29
2022-07-29T10:57:13.350Z,39.64
2022-07-29T10:59:44.300Z,39.50
2022-07-29T11:02:41.955Z,38.49
2022-07-29T11:05:13.625Z,38.86
2022-07-29T11:08:02.348Z,38.68
2022-07-29T11:10:31.682Z,37.91
2022-07-29T11:12:59.105Z,37.10
2022-07-29T11:18:15.195Z,35.67
2022-07-29T11:20:46.718Z,34.46
2022-07-29T11:23:27.370Z,34.57
2022-07-29T11:26:22.885Z,34.26
2022-07-29T11:29:04.246Z,34.34
2022-07-29T11:31:44.476Z,33.83
2022-07-29T11:34:28.200Z,33.16
2022-07-29T11:37:12.416Z,34.62
2022-07-29T11:39:40.100Z,35.11
2022-07-29T11:42:32.080Z,35.43
2022-07-29T11:45:41.169Z,36.60
2022-07-29T11:48:05.344Z,36.20
2022-07-29T11:50:45.745Z,35.74
2022-07-29T11:53:16.174Z,41.28
2022-07-29T11:55:51.626Z,41.29
2022-07-29T11:58:26.338Z,43.21
2022-07-29T12:00:55.549Z,44.28
2022-07-29T12:03:35.546Z,47.02
2022-07-29T12:06:07.450Z,47.41
2022-07-29T12:08:43.860Z,46.09
2022-07-29T12:11:22.469Z,45.29
2022-07-29T12:13:51.984Z,45.40
2022-07-29T12:16:25.573Z,45.03
2022-07-29T12:19:00.430Z,45.45
2022-07-29T12:21:29.330Z,45.73
2022-07-29T12:24:01.875Z,46.41
2022-07-29T12:26:34.206Z,45.88
2022-07-29T12:29:03.469Z,46.23
2022-07-29T12:31:42.835Z,45.94
2022-07-29T12:34:15.947Z,44.63
2022-07-29T12:36:43.816Z,45.62
2022-07-29T12:39:11.524Z,45.61
2022-07-29T12:41:38.420Z,45.69
2022-07-29T12:44:05.163Z,46.40
2022-07-29T12:46:32.467Z,48.71
2022-07-29T12:48:59.558Z,47.56
2022-07-29T12:51:32.135Z,48.41
2022-07-29T12:54:11.641Z,48.62
2022-07-29T12:56:43.498Z,48.98
2022-07-29T12:59:21.950Z,49.58
2022-07-29T13:01:50.445Z,50.07
2022-07-29T13:04:31.521Z,49.15
2022-07-29T13:07:08.243Z,48.15
2022-07-29T13:09:43.631Z,47.66
2022-07-29T13:12:12.330Z,48.41
2022-07-29T13:14:41.343Z,47.75
2022-07-29T13:17:23.105Z,48.01
2022-07-29T13:19:50.683Z,48.01
2022-07-29T13:22:19.665Z,48.14
2022-07-29T13:24:56.417Z,48.83
2022-07-29T13:27:25.577Z,48.82
2022-07-29T13:29:53.325Z,48.45
2022-07-29T13:32:28.188Z,50.34
2022-07-29T13:35:05.298Z,50.63
2022-07-29T13:37:34.937Z,52.69
2022-07-29T13:40:03.874Z,52.88
2022-07-29T13:42:30.947Z,51.23
2022-07-29T13:44:57.482Z,48.87
2022-07-29T13:47:32.395Z,48.94
2022-07-29T13:50:00.754Z,49.43
2022-07-29T13:52:27.274Z,48.18
2022-07-29T13:54:53.857Z,48.88
2022-07-29T13:57:20.418Z,48.21
2022-07-29T13:59:51.874Z,48.16
2022-07-29T14:02:20.846Z,46.58
2022-07-29T14:04:47.560Z,45.92
2022-07-29T14:07:16.359Z,45.97
2022-07-29T14:09:43.321Z,47.25
2022-07-29T14:12:10.297Z,47.11
2022-07-29T14:14:37.528Z,48.50
2022-07-29T14:17:07.177Z,47.57
2022-07-29T14:19:36.562Z,46.54
2022-07-29T14:22:04.793Z,46.28
2022-07-29T14:24:32.341Z,47.13
2022-07-29T14:26:59.229Z,47.11
2022-07-29T14:29:37.515Z,45.98
2022-07-29T14:32:07.653Z,44.58
2022-07-29T14:34:35.285Z,41.80
2022-07-29T14:37:01.846Z,36.17
2022-07-29T14:39:31.633Z,35.33
2022-07-29T14:41:59.135Z,35.05
2022-07-29T14:44:31.759Z,34.63
2022-07-29T14:47:07.695Z,34.77
2022-07-29T14:49:35.572Z,35.32
2022-07-29T14:52:02.170Z,34.01
2022-07-29T14:54:28.656Z,33.17
2022-07-29T14:56:57.865Z,33.38
2022-07-29T14:59:24.563Z,33.01
2022-07-29T15:01:51.093Z,33.32
2022-07-29T15:04:17.601Z,33.95
2022-07-29T15:06:44.724Z,33.03
2022-07-29T15:09:11.547Z,33.32
2022-07-29T15:11:38.759Z,33.12
2022-07-29T15:14:06.623Z,33.34
2022-07-29T15:16:33.643Z,32.60
2022-07-29T15:19:01.958Z,32.47
2022-07-29T15:21:28.649Z,32.39
2022-07-29T15:23:55.245Z,33.11
2022-07-29T15:26:22.240Z,32.90
2022-07-29T15:28:48.843Z,33.22
2022-07-29T15:31:15.812Z,33.52
2022-07-29T15:33:42.365Z,34.05
2022-07-29T15:36:09.217Z,35.08
2022-07-29T15:38:35.781Z,35.34
2022-07-29T15:41:08.586Z,34.73
2022-07-29T15:43:36.127Z,33.89
2022-07-29T15:46:41.071Z,35.49
2022-07-29T15:49:08.331Z,34.74
2022-07-29T15:51:34.961Z,34.36
2022-07-29T15:54:03.586Z,34.21
2022-07-29T15:56:30.541Z,34.10
2022-07-29T15:58:57.338Z,35.32
2022-07-29T16:01:24.919Z,35.57
2022-07-29T16:03:51.558Z,35.58
2022-07-29T16:06:18.118Z,35.02
2022-07-29T16:08:44.734Z,35.25
2022-07-29T16:11:11.230Z,35.05
2022-07-29T16:13:37.817Z,34.68
2022-07-29T16:16:04.861Z,35.16
2022-07-29T16:18:31.428Z,34.06
2022-07-29T16:20:58.177Z,34.29
2022-07-29T16:23:25.214Z,33.13
2022-07-29T16:26:00.628Z,32.19
2022-07-29T16:28:28.797Z,33.23
2022-07-29T16:30:55.565Z,32.87
2022-07-29T16:33:22.201Z,33.68
2022-07-29T16:35:48.917Z,33.11
2022-07-29T16:38:15.798Z,32.55
2022-07-29T16:40:42.844Z,33.65
2022-07-29T16:43:09.757Z,33.64
2022-07-29T16:45:43.907Z,33.87
2022-07-29T16:48:12.640Z,33.52
2022-07-29T16:50:39.954Z,34.30
2022-07-29T16:53:06.853Z,33.94
2022-07-29T16:55:33.806Z,33.63
2022-07-29T16:58:00.309Z,33.67
2022-07-29T17:00:26.890Z,33.90
2022-07-29T17:02:53.492Z,34.02
2022-07-29T17:05:20.070Z,33.53
2022-07-29T17:07:46.621Z,34.81
2022-07-29T17:10:13.153Z,34.42
2022-07-29T17:12:41.249Z,34.85
2022-07-29T17:15:10.990Z,32.69
2022-07-29T17:17:39.477Z,34.55
2022-07-29T17:20:22.157Z,34.29
2022-07-29T17:22:48.609Z,34.52
2022-07-29T17:25:20.913Z,33.38
2022-07-29T17:27:49.385Z,33.13
2022-07-29T17:30:16.101Z,33.74
2022-07-29T17:32:42.710Z,33.89
2022-07-29T17:35:28.516Z,33.36
2022-07-29T17:37:55.261Z,34.60
2022-07-29T17:40:22.063Z,33.30
2022-07-29T17:42:48.599Z,33.85
2022-07-29T17:45:15.295Z,33.86
2022-07-29T17:47:41.870Z,33.85
2022-07-29T17:50:08.621Z,34.03
2022-07-29T17:52:35.525Z,33.90
2022-07-29T17:55:02.534Z,34.25
2022-07-29T17:57:29.158Z,34.17
2022-07-29T17:59:55.645Z,33.91
2022-07-29T18:02:22.261Z,34.40
2022-07-29T18:04:51.522Z,34.92
2022-07-29T18:07:18.518Z,35.26
2022-07-29T18:09:45.197Z,35.78
2022-07-29T18:12:11.751Z,36.12
2022-07-29T18:14:38.651Z,36.60
2022-07-29T18:17:05.147Z,36.78
2022-07-29T18:19:31.748Z,36.89
2022-07-29T18:22:03.204Z,37.37
2022-07-29T18:24:32.349Z,37.22
2022-07-29T18:26:59.085Z,37.05
2022-07-29T18:29:28.703Z,37.02
2022-07-29T18:31:55.239Z,37.03
2022-07-29T18:34:21.735Z,37.93
2022-07-29T18:36:48.205Z,36.99
2022-07-29T18:39:20.800Z,37.07
2022-07-29T18:41:50.240Z,37.25
2022-07-29T18:44:19.379Z,37.51
2022-07-29T18:46:48.773Z,37.94
2022-07-29T18:49:15.582Z,38.39
2022-07-29T18:51:42.182Z,38.86
2022-07-29T18:54:09.993Z,40.37
2022-07-29T18:56:37.203Z,41.06
2022-07-29T18:59:04.207Z,41.55
2022-07-29T19:01:31.681Z,42.06
2022-07-29T19:03:59.347Z,44.51
2022-07-29T19:06:26.145Z,44.00
2022-07-29T19:08:53.288Z,45.01
2022-07-29T19:11:19.766Z,46.55
2022-07-29T19:13:46.373Z,47.10
2022-07-29T19:16:14.042Z,48.00
2022-07-29T19:18:41.488Z,49.42
2022-07-29T19:21:08.001Z,48.40
2022-07-29T19:24:05.839Z,49.15
2022-07-29T19:26:21.190Z,49.39
2022-07-29T19:28:48.810Z,49.93
2022-07-29T19:31:15.861Z,49.71
2022-07-29T19:33:42.734Z,50.46
2022-07-29T19:36:09.354Z,50.80
2022-07-29T19:38:38.090Z,51.19
2022-07-29T19:41:06.111Z,52.19
2022-07-29T19:43:52.243Z,52.49
2022-07-29T19:46:20.400Z,52.58
2022-07-29T19:48:47.040Z,53.06
2022-07-29T19:51:13.837Z,52.47
2022-07-29T19:53:40.585Z,52.70
2022-07-29T19:56:08.868Z,52.49
2022-07-29T19:58:36.100Z,52.28
2022-07-29T20:01:03.222Z,51.99
2022-07-29T20:03:39.620Z,51.52
2022-07-29T20:06:06.651Z,51.80
2022-07-29T20:08:33.167Z,51.62
2022-07-29T20:10:59.638Z,51.91
2022-07-29T20:13:26.188Z,51.54
2022-07-29T20:15:52.881Z,51.57
2022-07-29T20:18:19.404Z,50.72
2022-07-29T20:20:47.626Z,49.49
2022-07-29T20:23:14.181Z,49.51
2022-07-29T20:25:40.670Z,49.30
2022-07-29T20:28:07.498Z,51.11
2022-07-29T20:30:34.055Z,51.17
2022-07-29T20:33:04.948Z,52.35
2022-07-29T20:35:31.440Z,52.66
2022-07-29T20:37:58.008Z,52.82
2022-07-29T20:40:25.876Z,54.59
2022-07-29T20:42:53.710Z,54.98
2022-07-29T20:45:20.256Z,55.41
2022-07-29T20:47:46.781Z,55.53
2022-07-29T20:50:13.285Z,56.27
2022-07-29T20:52:40.989Z,56.58
2022-07-29T20:55:09.015Z,57.06
2022-07-29T20:57:38.855Z,57.42
2022-07-29T21:00:08.310Z,57.84
2022-07-29T21:02:36.941Z,58.61
2022-07-29T21:05:04.116Z,61.04
2022-07-29T21:07:30.622Z,60.89
2022-07-29T21:09:57.193Z,60.19
2022-07-29T21:12:23.938Z,60.60
2022-07-29T21:14:51.702Z,61.08
2022-07-29T21:17:22.338Z,61.38
2022-07-29T21:19:52.272Z,61.55
2022-07-29T21:22:21.584Z,61.30
2022-07-29T21:24:48.715Z,62.81
2022-07-29T21:27:33.799Z,63.19
2022-07-29T21:30:00.368Z,63.24
2022-07-29T21:32:27.619Z,64.06
2022-07-29T21:34:57.047Z,64.86
2022-07-29T21:37:23.562Z,64.41
2022-07-29T21:39:50.161Z,63.92
2022-07-29T21:42:16.947Z,63.54
2022-07-29T21:44:43.941Z,63.88
2022-07-29T21:47:11.728Z,64.72
2022-07-29T21:49:38.593Z,64.05
2022-07-29T21:52:05.719Z,64.52
2022-07-29T21:54:34.552Z,63.83
2022-07-29T21:57:01.189Z,66.38
2022-07-29T21:59:27.773Z,65.58
2022-07-29T22:01:54.740Z,66.52
2022-07-29T22:04:21.365Z,66.37
2022-07-29T22:06:48.040Z,65.71
2022-07-29T22:09:14.513Z,64.99
2022-07-29T22:11:41.944Z,65.04
2022-07-29T22:14:08.474Z,65.92
2022-07-29T22:16:35.157Z,65.94
2022-07-29T22:19:03.809Z,67.29
2022-07-29T22:21:30.614Z,67.72
2022-07-29T22:23:57.214Z,66.85
2022-07-29T22:26:23.813Z,67.40
2022-07-29T22:28:50.307Z,67.72
2022-07-29T22:31:16.893Z,67.89
2022-07-29T22:33:43.445Z,66.77
2022-07-29T22:36:10.440Z,67.26
2022-07-29T22:38:37.120Z,67.48
2022-07-29T22:41:03.618Z,66.66
2022-07-29T22:43:30.124Z,66.62
2022-07-29T22:45:56.645Z,66.50
2022-07-29T22:48:23.190Z,66.79
2022-07-29T22:50:49.725Z,67.57
2022-07-29T22:53:16.275Z,67.78
2022-07-29T22:55:43.017Z,69.25
2022-07-29T22:58:09.817Z,69.79
2022-07-29T23:00:36.320Z,69.76
2022-07-29T23:03:02.793Z,69.14
2022-07-29T23:05:29.365Z,69.36
2022-07-29T23:07:55.982Z,69.88
2022-07-29T23:10:22.775Z,70.29
2022-07-29T23:12:49.365Z,70.06
2022-07-29T23:15:15.894Z,71.02
2022-07-29T23:17:44.659Z,70.76
2022-07-29T23:20:11.448Z,71.29
2022-07-29T23:22:41.635Z,72.50
2022-07-29T23:25:08.432Z,72.48
2022-07-29T23:27:35.164Z,71.86
2022-07-29T23:30:02.371Z,72.44
2022-07-29T23:32:28.853Z,72.52
2022-07-29T23:34:55.369Z,72.75
2022-07-29T23:37:21.962Z,73.20
2022-07-29T23:39:48.446Z,73.53
2022-07-29T23:42:15.024Z,73.59
2022-07-29T23:44:41.493Z,73.46
2022-07-29T23:47:08.104Z,73.58
2022-07-29T23:49:34.622Z,74.01
2022-07-29T23:52:01.085Z,73.46
2022-07-29T23:54:27.752Z,72.87
2022-07-29T23:56:54.246Z,73.32
2022-07-29T23:59:20.721Z,73.17
